createdAt,value
2022-08-27T00:04:46.508Z,25.47
2022-08-27T00:24:51.382Z,25.17
2022-08-27T00:44:55.069Z,24.95
2022-08-27T01:05:04.200Z,24.72
2022-08-27T01:25:13.001Z,24.23
2022-08-27T01:45:28.261Z,24.28
2022-08-27T02:05:31.992Z,24.02
2022-08-27T02:25:48.053Z,23.88
2022-08-27T02:45:56.116Z,23.54
2022-08-27T03:06:00.083Z,23.28
2022-08-27T03:26:05.668Z,23.31
2022-08-27T03:46:09.112Z,23.06
2022-08-27T04:06:12.792Z,23.12
2022-08-27T04:26:17.809Z,22.97
2022-08-27T04:46:30.577Z,22.91
2022-08-27T05:06:36.747Z,22.87
2022-08-27T05:26:39.977Z,22.74
2022-08-27T05:46:43.388Z,22.96
2022-08-27T06:06:47.892Z,23.27
2022-08-27T06:26:52.022Z,23.69
2022-08-27T06:46:56.788Z,24.40
2022-08-27T07:07:04.058Z,25.29
2022-08-27T07:27:09.554Z,25.95
2022-08-27T07:47:13.593Z,26.71
2022-08-27T08:07:16.974Z,27.45
2022-08-27T08:27:22.722Z,27.50
2022-08-27T08:47:48.932Z,28.23
2022-08-27T09:08:21.278Z,28.52
2022-08-27T09:28:46.165Z,37.95
2022-08-27T09:48:49.492Z,42.37
2022-08-27T10:09:07.116Z,42.47
2022-08-27T10:29:45.057Z,40.06
2022-08-27T10:50:19.796Z,40.14
2022-08-27T11:10:51.329Z,36.92
2022-08-27T11:31:04.096Z,34.14
2022-08-27T11:51:10.006Z,34.40
2022-08-27T12:11:20.196Z,34.23
2022-08-27T12:31:26.145Z,34.95
2022-08-27T12:51:36.423Z,35.38
2022-08-27T13:11:48.691Z,35.63
2022-08-27T13:31:52.181Z,35.80
2022-08-27T13:52:09.617Z,35.64
2022-08-27T14:12:56.304Z,35.87
2022-08-27T14:33:01.537Z,37.08
2022-08-27T14:53:10.974Z,35.26
2022-08-27T15:13:14.460Z,34.80
2022-08-27T15:33:21.110Z,33.97
2022-08-27T15:53:26.074Z,33.75
2022-08-27T16:13:29.936Z,33.08
2022-08-27T16:33:33.404Z,31.98
2022-08-27T16:53:39.513Z,31.07
2022-08-27T17:13:49.525Z,30.36
2022-08-27T17:33:53.179Z,29.97
2022-08-27T17:54:01.159Z,29.68
2022-08-27T18:14:05.260Z,29.26
2022-08-27T18:34:09.040Z,28.68
2022-08-27T18:54:12.612Z,28.58
2022-08-27T19:14:16.202Z,28.22
2022-08-27T19:34:21.284Z,28.18
2022-08-27T19:54:24.852Z,28.11
2022-08-27T20:14:36.811Z,27.75
2022-08-27T20:34:43.697Z,27.47
2022-08-27T20:54:47.267Z,27.12
2022-08-27T21:14:55.726Z,27.01
2022-08-27T21:34:59.895Z,26.90
2022-08-27T21:55:05.096Z,26.84
2022-08-27T22:15:13.189Z,26.88
2022-08-27T22:35:17.598Z,26.63
2022-08-27T22:55:23.005Z,26.54
2022-08-27T23:15:28.182Z,25.80
2022-08-27T23:35:31.681Z,25.46
2022-08-27T23:55:42.893Z,25.30
